Aviation Digital Data Service (ADDS)

Output produced by METARs form (0434 UTC 14 December 2017)
found at http://aviationweather.gov/adds/metars/
 
METAR text: KBFM 140353Z 00000KT 10SM CLR 08/04 A3002 RMK AO2 SLP165 T00780039
Conditions at: KBFM (MOBILE/BROOKLEY , AL, US) observed 0353 UTC 14 December 2017
Temperature: 7.8°C (46°F)
Dewpoint: 3.9°C (39°F) [RH = 76%]
Pressure (altimeter): 30.02 inches Hg (1016.7 mb)
[Sea-level pressure: 1016.5 mb]
Winds: calm
Visibility: 10 or more miles (16+ km)
Ceiling: at least 12,000 feet AGL
Clouds: sky clear below 12,000 feet AGL
Weather: no significant weather observed at this time